createdAt,value
2018-05-07T00:00:14.455Z,94795.16
2018-05-07T00:02:40.802Z,94790.77
2018-05-07T00:05:07.167Z,94778.56
2018-05-07T00:07:33.507Z,94764.43
2018-05-07T00:09:59.871Z,94770.96
2018-05-07T00:12:26.188Z,94768.08
2018-05-07T00:14:52.549Z,94758.55
2018-05-07T00:17:18.887Z,94751.58
2018-05-07T00:19:45.335Z,94754.14
2018-05-07T00:22:11.714Z,94746.22
2018-05-07T00:24:38.078Z,94740.86
2018-05-07T00:27:04.417Z,94722.75
2018-05-07T00:29:30.810Z,94717.44
2018-05-07T00:31:57.145Z,94712.75
2018-05-07T00:34:23.524Z,94710.84
2018-05-07T00:36:49.850Z,94717.59
2018-05-07T00:39:16.202Z,94728.16
2018-05-07T00:41:42.520Z,94741.56
2018-05-07T00:44:08.886Z,94739.88
2018-05-07T00:46:35.273Z,94750.91
2018-05-07T00:49:01.609Z,94748.23
2018-05-07T00:51:27.980Z,94735.23
2018-05-07T00:53:54.384Z,94733.08
2018-05-07T00:56:20.740Z,94729.99
2018-05-07T00:58:47.342Z,94715.86
2018-05-07T01:01:13.709Z,94744.66
2018-05-07T01:03:40.066Z,94744.78
2018-05-07T01:06:06.403Z,94734.98
2018-05-07T01:08:32.813Z,94741.27
2018-05-07T01:10:59.142Z,94730.84
2018-05-07T01:13:25.457Z,94735.36
2018-05-07T01:15:51.778Z,94742.48
2018-05-07T01:18:18.103Z,94731.60
2018-05-07T01:20:44.424Z,94749.91
2018-05-07T01:23:10.814Z,94743.09
2018-05-07T01:25:37.137Z,94750.61
2018-05-07T01:28:03.470Z,94749.27
2018-05-07T01:30:29.814Z,94734.37
2018-05-07T01:32:56.202Z,94748.39
2018-05-07T01:35:22.543Z,94741.63
2018-05-07T01:37:48.855Z,94751.20
2018-05-07T01:40:15.220Z,94748.78
2018-05-07T01:42:41.598Z,94753.94
2018-05-07T01:45:07.910Z,94751.14
2018-05-07T01:47:34.230Z,94745.59
2018-05-07T01:50:00.648Z,94744.21
2018-05-07T01:52:26.966Z,94743.27
2018-05-07T01:54:53.284Z,94731.19
2018-05-07T01:57:19.667Z,94752.94
2018-05-07T01:59:46.002Z,94766.11
2018-05-07T02:02:12.313Z,94761.32
2018-05-07T02:04:38.649Z,94768.05
2018-05-07T02:07:05.009Z,94763.92
2018-05-07T02:09:31.323Z,94767.95
2018-05-07T02:11:57.681Z,94784.69
2018-05-07T02:14:24.000Z,94773.59
2018-05-07T02:16:50.333Z,94788.63
2018-05-07T02:19:16.792Z,94776.77
2018-05-07T02:21:43.190Z,94775.34
2018-05-07T02:24:09.539Z,94775.92
2018-05-07T02:26:35.901Z,94796.00
2018-05-07T02:29:02.216Z,94786.31
2018-05-07T02:31:28.817Z,94794.72
2018-05-07T02:33:55.028Z,94798.00
2018-05-07T02:36:21.544Z,94793.63
2018-05-07T02:38:47.927Z,94764.48
2018-05-07T02:41:14.266Z,94788.80
2018-05-07T02:43:40.737Z,94798.22
2018-05-07T02:46:07.067Z,94800.33
2018-05-07T02:48:33.404Z,94792.33
2018-05-07T02:50:59.791Z,94797.64
2018-05-07T02:53:26.165Z,94788.25
2018-05-07T02:55:52.537Z,94800.77
2018-05-07T02:58:18.913Z,94795.41
2018-05-07T03:00:45.283Z,94803.70
2018-05-07T03:03:11.648Z,94804.39
2018-05-07T03:05:38.001Z,94797.89
2018-05-07T03:08:04.387Z,94801.92
2018-05-07T03:10:30.753Z,94800.31
2018-05-07T03:12:57.113Z,94800.77
2018-05-07T03:15:23.485Z,94799.89
2018-05-07T03:17:49.883Z,94802.00
2018-05-07T03:20:16.280Z,94799.38
2018-05-07T03:22:42.637Z,94799.65
2018-05-07T03:25:08.968Z,94809.78
2018-05-07T03:30:07.843Z,94805.87
2018-05-07T03:32:34.201Z,94806.34
2018-05-07T03:35:00.541Z,94805.20
2018-05-07T03:37:26.885Z,94800.80
2018-05-07T03:39:53.270Z,94802.98
2018-05-07T03:42:19.648Z,94800.55
2018-05-07T03:44:46.060Z,94801.95
2018-05-07T03:47:12.438Z,94812.61
2018-05-07T03:49:38.768Z,94813.59
2018-05-07T03:52:05.106Z,94815.23
2018-05-07T03:54:31.468Z,94810.55
2018-05-07T03:56:57.827Z,94816.82
2018-05-07T03:59:24.277Z,94811.45
2018-05-07T04:01:50.649Z,94807.16
2018-05-07T04:04:17.019Z,94809.39
2018-05-07T04:06:43.344Z,94815.89
2018-05-07T04:09:09.705Z,94823.06
2018-05-07T04:11:36.069Z,94824.91
2018-05-07T04:14:02.432Z,94815.83
2018-05-07T04:16:28.748Z,94819.92
2018-05-07T04:18:55.097Z,94819.40
2018-05-07T04:21:21.440Z,94823.31
2018-05-07T04:23:47.810Z,94806.96
2018-05-07T04:26:14.218Z,94822.84
2018-05-07T04:28:40.588Z,94817.28
2018-05-07T04:31:06.968Z,94825.42
2018-05-07T04:33:33.360Z,94814.10
2018-05-07T04:35:59.703Z,94814.84
2018-05-07T04:38:26.086Z,94824.71
2018-05-07T04:40:52.416Z,94816.13
2018-05-07T04:43:18.816Z,94822.68
2018-05-07T04:45:45.239Z,94830.41
2018-05-07T04:48:11.616Z,94827.78
2018-05-07T04:50:37.955Z,94830.41
2018-05-07T04:53:04.311Z,94835.86
2018-05-07T04:55:30.635Z,94833.31
2018-05-07T04:57:57.005Z,94838.25
2018-05-07T05:00:23.323Z,94836.09
2018-05-07T05:02:49.683Z,94834.44
2018-05-07T05:05:16.035Z,94843.64
2018-05-07T05:07:42.362Z,94848.65
2018-05-07T05:10:08.759Z,94828.70
2018-05-07T05:12:35.076Z,94849.95
2018-05-07T05:15:01.425Z,94853.75
2018-05-07T05:17:27.782Z,94858.43
2018-05-07T05:19:54.132Z,94851.48
2018-05-07T05:22:20.492Z,94856.20
2018-05-07T05:24:46.866Z,94861.44
2018-05-07T05:27:13.275Z,94856.27
2018-05-07T05:29:39.620Z,94858.86
2018-05-07T05:32:06.006Z,94841.80
2018-05-07T05:34:32.435Z,94850.31
2018-05-07T05:36:58.877Z,94857.58
2018-05-07T05:39:25.285Z,94861.30
2018-05-07T05:41:51.627Z,94868.99
2018-05-07T05:44:17.990Z,94855.08
2018-05-07T05:46:44.390Z,94860.19
2018-05-07T05:49:10.757Z,94857.03
2018-05-07T05:51:37.130Z,94850.56
2018-05-07T05:54:03.459Z,94845.70
2018-05-07T05:56:29.886Z,94856.70
2018-05-07T05:58:56.163Z,94846.31
2018-05-07T06:01:22.567Z,94860.73
2018-05-07T06:03:48.944Z,94853.36
2018-05-07T06:06:15.367Z,94854.25
2018-05-07T06:08:41.699Z,94851.73
2018-05-07T06:11:08.060Z,94856.20
2018-05-07T06:13:34.391Z,94835.95
2018-05-07T06:16:00.774Z,94849.61
2018-05-07T06:18:27.116Z,94847.59
2018-05-07T06:20:53.597Z,94855.66
2018-05-07T06:23:19.934Z,94861.08
2018-05-07T06:25:46.364Z,94853.25
2018-05-07T06:28:12.716Z,94865.91
2018-05-07T06:30:39.057Z,94866.91
2018-05-07T06:33:05.528Z,94871.55
2018-05-07T06:35:31.881Z,94870.09
2018-05-07T06:37:58.244Z,94865.47
2018-05-07T06:40:24.656Z,94849.13
2018-05-07T06:42:50.976Z,94854.92
2018-05-07T06:45:17.410Z,94859.12
2018-05-07T06:47:43.764Z,94857.80
2018-05-07T06:50:10.241Z,94854.52
2018-05-07T06:52:36.628Z,94850.48
2018-05-07T06:55:03.012Z,94856.56
2018-05-07T06:57:29.384Z,94834.17
2018-05-07T06:59:55.741Z,94854.73
2018-05-07T07:02:22.149Z,94850.66
2018-05-07T07:04:48.468Z,94842.73
2018-05-07T07:07:14.813Z,94822.43
2018-05-07T07:09:41.229Z,94851.09
2018-05-07T07:12:07.585Z,94841.95
2018-05-07T07:14:33.968Z,94840.19
2018-05-07T07:17:00.396Z,94838.58
2018-05-07T07:19:26.737Z,94842.53
2018-05-07T07:21:53.223Z,94844.69
2018-05-07T07:24:19.498Z,94836.53
2018-05-07T07:26:45.863Z,94822.20
2018-05-07T07:29:12.201Z,94822.80
2018-05-07T07:31:38.592Z,94821.89
2018-05-07T07:34:05.000Z,94807.16
2018-05-07T07:36:31.308Z,94824.52
2018-05-07T07:38:57.636Z,94827.43
2018-05-07T07:41:24.021Z,94826.83
2018-05-07T07:43:50.342Z,94830.11
2018-05-07T07:46:16.794Z,94822.44
2018-05-07T07:48:43.153Z,94827.28
2018-05-07T07:51:09.505Z,94841.19
2018-05-07T07:53:35.932Z,94835.64
2018-05-07T07:56:02.189Z,94833.48
2018-05-07T07:58:28.610Z,94836.43
2018-05-07T08:00:54.944Z,94836.62
2018-05-07T08:03:21.286Z,94811.20
2018-05-07T08:05:47.646Z,94836.84
2018-05-07T08:08:13.965Z,94825.61
2018-05-07T08:10:40.354Z,94818.81
2018-05-07T08:13:06.675Z,94825.25
2018-05-07T08:15:33.038Z,94822.26
2018-05-07T08:17:59.417Z,94818.91
2018-05-07T08:20:26.752Z,94821.16
2018-05-07T08:22:53.112Z,94829.32
2018-05-07T08:25:19.541Z,94834.83
2018-05-07T08:27:45.864Z,94823.64
2018-05-07T08:30:12.189Z,94817.20
2018-05-07T08:32:38.587Z,94809.73
2018-05-07T08:35:04.908Z,94815.31
2018-05-07T08:37:31.257Z,94815.20
2018-05-07T08:39:57.621Z,94797.31
2018-05-07T08:42:24.057Z,94810.63
2018-05-07T08:44:50.469Z,94803.09
2018-05-07T08:47:16.791Z,94797.73
2018-05-07T08:49:43.173Z,94818.36
2018-05-07T08:52:09.521Z,94819.00
2018-05-07T08:54:35.844Z,94807.77
2018-05-07T08:57:02.187Z,94821.23
2018-05-07T08:59:28.540Z,94817.98
2018-05-07T09:01:54.847Z,94825.69
2018-05-07T09:04:21.235Z,94825.52
2018-05-07T09:06:47.593Z,94823.57
2018-05-07T09:09:13.976Z,94818.34
2018-05-07T09:11:40.349Z,94827.54
2018-05-07T09:14:06.731Z,94821.39
2018-05-07T09:16:33.123Z,94831.30
2018-05-07T09:18:59.446Z,94785.41
2018-05-07T09:21:25.808Z,94822.28
2018-05-07T09:23:52.169Z,94822.64
2018-05-07T09:26:18.495Z,94814.75
2018-05-07T09:28:44.827Z,94827.03
2018-05-07T09:31:11.204Z,94828.11
2018-05-07T09:33:37.598Z,94816.23
2018-05-07T09:36:03.934Z,94813.83
2018-05-07T09:38:30.298Z,94819.30
2018-05-07T09:40:57.660Z,94816.23
2018-05-07T09:43:24.069Z,94811.25
2018-05-07T09:45:50.439Z,94814.50
2018-05-07T09:48:16.837Z,94816.20
2018-05-07T09:50:43.224Z,94808.50
2018-05-07T09:53:09.589Z,94809.65
2018-05-07T09:55:36.077Z,94811.00
2018-05-07T09:58:02.369Z,94808.88
2018-05-07T10:00:28.694Z,94795.31
2018-05-07T10:02:55.050Z,94793.66
2018-05-07T10:05:21.401Z,94793.34
2018-05-07T10:07:47.721Z,94801.29
2018-05-07T10:10:14.066Z,94802.02
2018-05-07T10:12:40.385Z,94789.58
2018-05-07T10:15:06.750Z,94795.72
2018-05-07T10:17:33.114Z,94796.56
2018-05-07T10:19:59.500Z,94794.39
2018-05-07T10:22:25.861Z,94793.92
2018-05-07T10:24:52.226Z,94791.50
2018-05-07T10:27:18.579Z,94789.13
2018-05-07T10:29:44.979Z,94790.47
2018-05-07T10:32:11.331Z,94766.84
2018-05-07T10:34:37.721Z,94789.53
2018-05-07T10:37:04.042Z,94786.66
2018-05-07T10:39:30.373Z,94779.90
2018-05-07T10:41:56.697Z,94790.72
2018-05-07T10:44:23.013Z,94788.61
2018-05-07T10:46:49.334Z,94780.66
2018-05-07T10:49:15.751Z,94781.50
2018-05-07T10:51:42.036Z,94775.77
2018-05-07T10:54:08.413Z,94775.36
2018-05-07T10:56:34.782Z,94743.03
2018-05-07T10:59:01.109Z,94762.66
2018-05-07T11:01:27.474Z,94770.05
2018-05-07T11:03:53.828Z,94768.61
2018-05-07T11:06:20.204Z,94772.12
2018-05-07T11:08:46.525Z,94766.80
2018-05-07T11:11:12.856Z,94773.28
2018-05-07T11:13:39.259Z,94775.31
2018-05-07T11:16:05.605Z,94761.44
2018-05-07T11:18:31.950Z,94761.17
2018-05-07T11:20:58.289Z,94758.34
2018-05-07T11:23:24.638Z,94761.12
2018-05-07T11:25:50.986Z,94759.88
2018-05-07T11:28:17.309Z,94757.04
2018-05-07T11:30:43.645Z,94749.94
2018-05-07T11:33:10.054Z,94745.19
2018-05-07T11:35:36.368Z,94750.41
2018-05-07T11:38:02.752Z,94743.17
2018-05-07T11:40:29.125Z,94726.65
2018-05-07T11:42:55.448Z,94729.32
2018-05-07T11:45:21.815Z,94731.22
2018-05-07T11:47:48.143Z,94729.37
2018-05-07T11:50:14.455Z,94707.55
2018-05-07T11:52:40.817Z,94712.92
2018-05-07T11:55:07.141Z,94727.49
2018-05-07T11:57:33.473Z,94720.94
2018-05-07T11:59:59.805Z,94707.59
2018-05-07T12:02:26.203Z,94709.77
2018-05-07T12:04:52.512Z,94712.95
2018-05-07T12:07:18.823Z,94705.90
2018-05-07T12:09:45.146Z,94706.09
2018-05-07T12:12:11.482Z,94712.32
2018-05-07T12:14:37.798Z,94701.21
2018-05-07T12:17:04.179Z,94700.06
2018-05-07T12:19:30.509Z,94699.86
2018-05-07T12:21:56.868Z,94696.03
2018-05-07T12:24:23.184Z,94693.47
2018-05-07T12:26:49.557Z,94680.52
2018-05-07T12:29:15.872Z,94683.36
2018-05-07T12:31:42.376Z,94687.38
2018-05-07T12:34:08.581Z,94682.84
2018-05-07T12:36:34.964Z,94672.23
2018-05-07T12:39:01.286Z,94678.09
2018-05-07T12:41:27.631Z,94673.14
2018-05-07T12:43:53.956Z,94670.33
2018-05-07T12:46:20.320Z,94666.55
2018-05-07T12:48:46.629Z,94650.61
2018-05-07T12:51:12.936Z,94667.05
2018-05-07T12:53:39.299Z,94650.05
2018-05-07T12:56:05.616Z,94654.80
2018-05-07T12:58:32.016Z,94658.28
2018-05-07T13:00:58.336Z,94657.31
2018-05-07T13:03:24.665Z,94643.05
2018-05-07T13:05:51.023Z,94653.80
2018-05-07T13:08:17.388Z,94649.32
2018-05-07T13:10:43.702Z,94632.03
2018-05-07T13:13:10.019Z,94637.55
2018-05-07T13:15:36.347Z,94650.87
2018-05-07T13:18:02.820Z,94645.30
2018-05-07T13:20:29.160Z,94632.94
2018-05-07T13:22:55.485Z,94640.62
2018-05-07T13:25:21.804Z,94640.36
2018-05-07T13:27:48.154Z,94637.83
2018-05-07T13:30:14.508Z,94640.09
2018-05-07T13:32:40.817Z,94624.94
2018-05-07T13:35:07.170Z,94619.50
2018-05-07T13:37:33.528Z,94625.30
2018-05-07T13:39:59.884Z,94611.79
2018-05-07T13:42:26.209Z,94625.03
2018-05-07T13:44:52.573Z,94617.30
2018-05-07T13:47:18.918Z,94605.05
2018-05-07T13:49:45.294Z,94600.37
2018-05-07T13:52:11.667Z,94601.54
2018-05-07T13:54:38.025Z,94600.31
2018-05-07T13:57:04.352Z,94601.30
2018-05-07T13:59:30.714Z,94593.30
2018-05-07T14:01:57.036Z,94587.86
2018-05-07T14:04:23.384Z,94585.40
2018-05-07T14:06:49.741Z,94573.86
2018-05-07T14:09:16.091Z,94558.66
2018-05-07T14:11:42.396Z,94577.03
2018-05-07T14:14:08.747Z,94566.89
2018-05-07T14:16:35.093Z,94566.07
2018-05-07T14:19:01.410Z,94565.14
2018-05-07T14:21:27.725Z,94558.40
2018-05-07T14:23:54.100Z,94561.00
2018-05-07T14:26:20.491Z,94551.87
2018-05-07T14:28:46.799Z,94546.80
2018-05-07T14:31:13.165Z,94556.77
2018-05-07T14:33:39.496Z,94561.19
2018-05-07T14:36:05.861Z,94568.73
2018-05-07T14:38:32.175Z,94561.24
2018-05-07T14:40:58.499Z,94562.38
2018-05-07T14:43:24.814Z,94568.09
2018-05-07T14:45:51.144Z,94565.11
2018-05-07T14:48:17.501Z,94561.71
2018-05-07T14:50:43.816Z,94559.20
2018-05-07T14:53:10.144Z,94565.61
2018-05-07T14:55:36.459Z,94555.62
2018-05-07T14:58:02.851Z,94548.30
2018-05-07T15:00:29.181Z,94551.75
2018-05-07T15:02:55.528Z,94535.18
2018-05-07T15:05:21.840Z,94558.44
2018-05-07T15:07:48.189Z,94562.06
2018-05-07T15:10:14.508Z,94550.41
2018-05-07T15:12:40.819Z,94529.77
2018-05-07T15:15:07.172Z,94530.94
2018-05-07T15:17:33.502Z,94551.05
2018-05-07T15:19:59.834Z,94540.16
2018-05-07T15:22:26.147Z,94541.21
2018-05-07T15:24:52.519Z,94544.20
2018-05-07T15:27:18.834Z,94543.81
2018-05-07T15:29:45.216Z,94547.69
2018-05-07T15:32:11.558Z,94546.92
2018-05-07T15:34:37.867Z,94538.58
2018-05-07T15:37:04.208Z,94545.72
2018-05-07T15:39:30.555Z,94533.22
2018-05-07T15:41:56.908Z,94524.99
2018-05-07T15:44:23.218Z,94522.83
2018-05-07T15:46:49.623Z,94535.80
2018-05-07T15:49:15.988Z,94510.88
2018-05-07T15:51:42.321Z,94530.73
2018-05-07T15:54:08.647Z,94533.89
2018-05-07T15:56:35.020Z,94536.20
2018-05-07T15:59:01.335Z,94534.86
2018-05-07T16:01:27.670Z,94504.15
2018-05-07T16:03:54.040Z,94524.94
2018-05-07T16:06:20.451Z,94533.31
2018-05-07T16:08:46.801Z,94516.39
2018-05-07T16:11:13.127Z,94496.07
2018-05-07T16:13:39.448Z,94517.94
2018-05-07T16:16:05.823Z,94520.55
2018-05-07T16:18:32.178Z,94510.00
2018-05-07T16:20:58.501Z,94498.50
2018-05-07T16:23:24.837Z,94504.91
2018-05-07T16:25:51.164Z,94523.18
2018-05-07T16:28:17.598Z,94521.97
2018-05-07T16:30:43.946Z,94524.75
2018-05-07T16:33:10.274Z,94530.05
2018-05-07T16:35:36.694Z,94524.17
2018-05-07T16:38:03.010Z,94520.69
2018-05-07T16:40:29.323Z,94531.87
2018-05-07T16:42:55.680Z,94535.97
2018-05-07T16:45:22.011Z,94529.64
2018-05-07T16:47:48.328Z,94528.32
2018-05-07T16:50:14.710Z,94519.02
2018-05-07T16:52:41.067Z,94535.17
2018-05-07T16:55:07.399Z,94534.80
2018-05-07T16:57:33.725Z,94531.06
2018-05-07T17:00:00.078Z,94540.06
2018-05-07T17:02:26.398Z,94545.33
2018-05-07T17:04:52.718Z,94549.13
2018-05-07T17:07:19.040Z,94549.64
2018-05-07T17:09:45.432Z,94547.79
2018-05-07T17:12:11.764Z,94543.92
2018-05-07T17:14:38.119Z,94547.97
2018-05-07T17:17:04.430Z,94548.23
2018-05-07T17:19:30.770Z,94557.55
2018-05-07T17:21:57.113Z,94553.53
2018-05-07T17:24:23.448Z,94554.36
2018-05-07T17:26:49.843Z,94534.65
2018-05-07T17:29:16.201Z,94558.42
2018-05-07T17:31:42.532Z,94563.84
2018-05-07T17:34:08.872Z,94558.74
2018-05-07T17:36:35.193Z,94563.98
2018-05-07T17:39:01.512Z,94563.11
2018-05-07T17:41:27.938Z,94570.52
2018-05-07T17:43:54.271Z,94570.84
2018-05-07T17:46:20.588Z,94579.48
2018-05-07T17:48:46.932Z,94578.86
2018-05-07T17:51:13.256Z,94584.20
2018-05-07T17:53:39.600Z,94580.88
2018-05-07T17:56:05.946Z,94582.11
2018-05-07T17:58:32.283Z,94585.83
2018-05-07T18:00:58.614Z,94596.20
2018-05-07T18:03:24.931Z,94607.16
2018-05-07T18:05:51.263Z,94603.75
2018-05-07T18:08:17.623Z,94589.23
2018-05-07T18:10:43.967Z,94604.84
2018-05-07T18:13:10.292Z,94583.87
2018-05-07T18:15:36.616Z,94599.33
2018-05-07T18:18:02.941Z,94601.91
2018-05-07T18:20:29.280Z,94586.77
2018-05-07T18:22:55.599Z,94593.30
2018-05-07T18:25:21.939Z,94610.92
2018-05-07T18:27:48.286Z,94611.07
2018-05-07T18:30:14.620Z,94583.11
2018-05-07T18:32:41.117Z,94578.62
2018-05-07T18:35:07.303Z,94594.61
2018-05-07T18:37:33.652Z,94597.27
2018-05-07T18:39:59.963Z,94570.77
2018-05-07T18:42:26.316Z,94608.44
2018-05-07T18:44:52.661Z,94597.16
2018-05-07T18:47:18.976Z,94608.08
2018-05-07T18:49:45.308Z,94604.42
2018-05-07T18:52:11.707Z,94606.48
2018-05-07T18:54:38.004Z,94600.73
2018-05-07T18:57:04.317Z,94603.81
2018-05-07T18:59:30.633Z,94609.63
2018-05-07T19:01:56.954Z,94604.33
2018-05-07T19:04:23.310Z,94610.51
2018-05-07T19:06:49.656Z,94606.30
2018-05-07T19:09:16.047Z,94613.81
2018-05-07T19:11:42.376Z,94604.59
2018-05-07T19:14:08.703Z,94615.66
2018-05-07T19:16:35.012Z,94605.00
2018-05-07T19:19:01.330Z,94616.12
2018-05-07T19:21:27.660Z,94616.33
2018-05-07T19:23:53.976Z,94607.74
2018-05-07T19:26:20.320Z,94604.44
2018-05-07T19:28:46.673Z,94619.53
2018-05-07T19:31:12.984Z,94615.52
2018-05-07T19:33:39.361Z,94612.26
2018-05-07T19:36:05.690Z,94611.35
2018-05-07T19:38:32.023Z,94609.28
2018-05-07T19:40:58.367Z,94601.19
2018-05-07T19:45:56.993Z,94604.03
2018-05-07T19:48:23.387Z,94604.64
2018-05-07T19:50:49.663Z,94586.05
2018-05-07T19:53:16.129Z,94607.89
2018-05-07T19:55:42.491Z,94607.27
2018-05-07T19:58:08.780Z,94603.00
2018-05-07T20:00:35.118Z,94602.94
2018-05-07T20:03:01.448Z,94605.43
2018-05-07T20:05:27.809Z,94601.36
2018-05-07T20:07:54.170Z,94590.08
2018-05-07T20:10:20.483Z,94589.81
2018-05-07T20:12:46.837Z,94588.33
2018-05-07T20:15:13.185Z,94591.93
2018-05-07T20:17:39.496Z,94587.03
2018-05-07T20:20:05.849Z,94582.09
2018-05-07T20:22:32.157Z,94577.30
2018-05-07T20:24:58.476Z,94564.53
2018-05-07T20:27:24.804Z,94577.61
2018-05-07T20:29:51.181Z,94576.78
2018-05-07T20:32:17.515Z,94573.55
2018-05-07T20:34:43.869Z,94562.53
2018-05-07T20:37:10.254Z,94570.70
2018-05-07T20:39:36.600Z,94549.14
2018-05-07T20:42:02.964Z,94577.93
2018-05-07T20:44:29.289Z,94572.16
2018-05-07T20:46:55.617Z,94581.00
2018-05-07T20:49:21.964Z,94576.98
2018-05-07T20:51:48.356Z,94580.80
2018-05-07T20:54:14.664Z,94568.76
2018-05-07T20:56:41.033Z,94565.72
2018-05-07T20:59:07.380Z,94575.44
2018-05-07T21:01:33.724Z,94564.19
2018-05-07T21:04:00.045Z,94573.03
2018-05-07T21:06:26.372Z,94578.75
2018-05-07T21:08:52.796Z,94546.09
2018-05-07T21:11:19.124Z,94570.31
2018-05-07T21:13:45.515Z,94571.98
2018-05-07T21:16:11.850Z,94579.10
2018-05-07T21:18:38.219Z,94573.50
2018-05-07T21:21:04.533Z,94574.94
2018-05-07T21:23:30.852Z,94567.22
2018-05-07T21:25:57.179Z,94555.94
2018-05-07T21:28:23.516Z,94563.80
2018-05-07T21:30:49.926Z,94576.08
2018-05-07T21:33:16.248Z,94579.47
2018-05-07T21:35:42.591Z,94569.27
2018-05-07T21:38:08.917Z,94554.48
2018-05-07T21:40:35.236Z,94552.23
2018-05-07T21:43:01.558Z,94566.50
2018-05-07T21:45:27.886Z,94565.72
2018-05-07T21:47:54.271Z,94566.70
2018-05-07T21:50:20.621Z,94558.06
2018-05-07T21:52:46.949Z,94556.56
2018-05-07T21:55:13.269Z,94561.66
2018-05-07T21:57:39.590Z,94564.34
2018-05-07T22:00:05.919Z,94547.17
2018-05-07T22:02:32.255Z,94549.86
2018-05-07T22:04:58.576Z,94548.67
2018-05-07T22:07:24.900Z,94543.84
2018-05-07T22:09:51.236Z,94557.23
2018-05-07T22:12:17.594Z,94552.39
2018-05-07T22:14:43.895Z,94555.94
2018-05-07T22:17:10.213Z,94553.20
2018-05-07T22:19:36.525Z,94549.55
2018-05-07T22:22:02.852Z,94551.56
2018-05-07T22:24:29.174Z,94550.06
2018-05-07T22:26:55.496Z,94538.23
2018-05-07T22:29:21.833Z,94528.75
2018-05-07T22:31:48.213Z,94544.30
2018-05-07T22:34:14.578Z,94535.61
2018-05-07T22:36:40.905Z,94528.91
2018-05-07T22:39:07.273Z,94533.91
2018-05-07T22:41:33.676Z,94533.66
2018-05-07T22:43:59.992Z,94506.98
2018-05-07T22:46:26.347Z,94518.83
2018-05-07T22:48:52.715Z,94526.33
2018-05-07T22:51:19.025Z,94520.11
2018-05-07T22:53:45.384Z,94519.95
2018-05-07T22:56:11.744Z,94523.20
2018-05-07T22:58:38.062Z,94514.80
2018-05-07T23:01:04.423Z,94511.82
2018-05-07T23:03:30.759Z,94508.06
2018-05-07T23:05:57.125Z,94508.72
2018-05-07T23:08:23.452Z,94506.58
2018-05-07T23:10:49.846Z,94496.63
2018-05-07T23:13:16.173Z,94506.88
2018-05-07T23:15:42.520Z,94493.29
2018-05-07T23:18:08.833Z,94512.48
2018-05-07T23:20:35.228Z,94501.94
2018-05-07T23:23:01.549Z,94502.13
2018-05-07T23:25:27.917Z,94500.03
2018-05-07T23:27:54.241Z,94498.42
2018-05-07T23:30:20.606Z,94494.67
2018-05-07T23:32:46.916Z,94494.28
2018-05-07T23:35:13.305Z,94495.10
2018-05-07T23:37:39.629Z,94492.83
2018-05-07T23:40:05.954Z,94495.72
2018-05-07T23:42:32.303Z,94503.38
2018-05-07T23:44:58.711Z,94490.08
2018-05-07T23:47:25.020Z,94491.85
2018-05-07T23:49:51.376Z,94496.28
2018-05-07T23:52:17.692Z,94484.74
2018-05-07T23:54:44.081Z,94486.30
2018-05-07T23:57:10.403Z,94495.66
2018-05-07T23:59:36.714Z,94461.35
